STB weather

Santa Bárbara del Zulia Airport
Zulia, Venezuela

Public forecast

Using degrees Celsius for public forecast. Weather courtesy of forecast.io.

Current aviation weather report (METAR) for Santa Bárbara del Zulia Airport

Report is more than 6 hours old.

Retrieved 2016/06/08 18:00 UTC (3 years ago):

SVSZ 081800Z 00000KT CAVOK XX/XX Q1012

Closest aviation forecast (TAF) to Santa Bárbara del Zulia Airport

Closest forecast is Camilo Daza International Airport, 71.3 nm (132.1 km) SSW. Retrieved 2019-10-21 00:30 UTC (3 hours ago):

TAF SKCC 202230Z 2100/2124 VRB04KT 9999 SCT020 SCT090 TEMPO 2100/2102 DZ SCT017 SCT080 BECMG 2113/2115 35010KT TEMPO 2120/2124 5000 TSRA SCT010 BKN070 TX33/2118Z TN23/2111Z